createdAt,value
2019-01-21T07:06:25.596Z,37.06
2019-01-21T07:07:27.677Z,37.38
2019-01-21T07:08:26.747Z,37.68
2019-01-21T07:09:26.769Z,37.59
2019-01-21T07:10:26.341Z,37.59
2019-01-21T07:11:26.414Z,37.46
2019-01-21T07:12:26.322Z,37.38
2019-01-21T07:13:26.330Z,37.68
2019-01-21T07:14:26.309Z,37.79
2019-01-21T07:15:26.290Z,37.77
2019-01-21T07:16:26.300Z,37.38
2019-01-21T07:17:26.287Z,37.48
2019-01-21T07:18:26.265Z,37.66
2019-01-21T07:19:26.286Z,37.26
2019-01-21T07:20:26.280Z,37.77
2019-01-21T07:21:26.251Z,37.79
2019-01-21T07:23:26.174Z,37.66
2019-01-21T07:23:32.501Z,37.16
2019-01-21T07:24:26.296Z,37.57
2019-01-21T07:25:26.187Z,36.96
2019-01-21T07:26:26.178Z,37.16
2019-01-21T07:27:26.198Z,36.96
2019-01-21T07:28:26.160Z,37.46
2019-01-21T07:29:26.150Z,36.35
2019-01-21T07:30:26.141Z,36.15
2019-01-21T07:31:26.135Z,36.13
2019-01-21T07:32:26.133Z,36.34
2019-01-21T07:33:26.094Z,35.85
2019-01-21T07:34:26.064Z,36.34
2019-01-21T07:35:26.086Z,36.24
2019-01-21T07:36:26.097Z,36.04
2019-01-21T07:37:26.083Z,36.64
2019-01-21T07:38:29.005Z,36.64
2019-01-21T07:39:29.121Z,36.24
2019-01-21T07:40:26.031Z,36.04
2019-01-21T07:41:25.992Z,36.24
2019-01-21T07:42:26.809Z,36.54
2019-01-21T07:43:25.941Z,36.13
2019-01-21T07:44:25.974Z,36.13
2019-01-21T07:45:26.055Z,36.34
2019-01-21T07:46:26.041Z,36.13
2019-01-21T07:47:27.928Z,36.24
2019-01-21T07:48:25.926Z,36.24
2019-01-21T07:49:25.917Z,36.34
2019-01-21T07:50:25.873Z,37.15
2019-01-21T07:51:25.974Z,36.54
2019-01-21T07:52:25.854Z,36.94
2019-01-21T07:53:25.938Z,36.74
2019-01-21T07:54:25.896Z,36.24
2019-01-21T07:55:25.823Z,35.93
2019-01-21T07:56:26.131Z,36.13
2019-01-21T07:57:25.797Z,36.34
2019-01-21T07:58:25.930Z,35.83
2019-01-21T07:59:25.777Z,36.42
2019-01-21T08:00:25.800Z,36.13
2019-01-21T08:01:25.754Z,37.04
2019-01-21T08:02:25.818Z,36.13
2019-01-21T08:03:25.793Z,36.44
2019-01-21T08:04:26.134Z,36.24
2019-01-21T08:05:25.849Z,36.64
2019-01-21T08:06:25.694Z,36.24
2019-01-21T08:07:25.728Z,35.92
2019-01-21T08:08:25.681Z,36.24
2019-01-21T08:09:29.827Z,36.54
2019-01-21T08:10:25.666Z,36.34
2019-01-21T08:11:26.232Z,36.13
2019-01-21T08:12:25.650Z,36.54
2019-01-21T08:13:25.706Z,36.44
2019-01-21T08:14:25.685Z,36.24
2019-01-21T08:15:26.415Z,37.04
2019-01-21T08:16:25.593Z,37.24
2019-01-21T08:17:25.588Z,37.24
2019-01-21T08:18:26.263Z,37.55
2019-01-21T08:19:25.578Z,37.24
2019-01-21T08:20:25.542Z,36.44
2019-01-21T08:21:26.380Z,36.54
2019-01-21T08:22:25.590Z,37.15
2019-01-21T08:23:30.229Z,36.94
2019-01-21T08:24:25.496Z,36.72
2019-01-21T08:25:25.485Z,37.75
2019-01-21T08:26:26.323Z,37.55
2019-01-21T08:27:25.503Z,38.35
2019-01-21T08:28:26.271Z,37.45
2019-01-21T08:29:29.563Z,37.85
2019-01-21T08:30:25.497Z,37.65
2019-01-21T08:31:25.418Z,37.55
2019-01-21T08:32:28.312Z,37.24
2019-01-21T08:33:25.413Z,37.24
2019-01-21T08:34:25.451Z,37.65
2019-01-21T08:35:26.654Z,38.54
2019-01-21T08:36:25.364Z,37.65
2019-01-21T08:37:26.074Z,38.06
2019-01-21T08:38:25.542Z,38.26
2019-01-21T08:39:25.338Z,38.96
2019-01-21T08:40:25.334Z,38.66
2019-01-21T08:41:25.305Z,39.25
2019-01-21T08:42:25.314Z,38.04
2019-01-21T08:43:25.315Z,39.75
2019-01-21T08:44:25.316Z,39.25
2019-01-21T08:45:25.343Z,39.35
2019-01-21T08:46:25.301Z,39.53
2019-01-21T08:47:28.631Z,39.95
2019-01-21T08:48:25.251Z,39.94
2019-01-21T08:49:31.794Z,39.63
2019-01-21T08:50:25.210Z,40.14
2019-01-21T08:51:25.223Z,39.83
2019-01-21T08:52:25.220Z,39.94
2019-01-21T08:53:25.212Z,39.63
2019-01-21T08:54:25.179Z,39.23
2019-01-21T08:55:25.185Z,39.43
2019-01-21T08:56:25.224Z,39.63
2019-01-21T08:57:25.176Z,39.43
2019-01-21T08:58:25.146Z,40.03
2019-01-21T08:59:25.776Z,39.73
2019-01-21T09:00:25.192Z,39.63
2019-01-21T09:01:25.185Z,39.73
2019-01-21T09:02:25.164Z,39.43
2019-01-21T09:03:25.155Z,39.43
2019-01-21T09:04:25.211Z,39.63
2019-01-21T09:05:25.072Z,39.03
2019-01-21T09:06:25.118Z,39.03
2019-01-21T09:07:25.100Z,39.23
2019-01-21T09:08:25.099Z,39.43
2019-01-21T09:09:25.958Z,39.13
2019-01-21T09:10:25.110Z,39.23
2019-01-21T09:11:28.002Z,39.43
2019-01-21T09:12:25.058Z,38.93
2019-01-21T09:13:25.095Z,39.23
2019-01-21T09:14:24.990Z,39.63
2019-01-21T09:15:25.038Z,39.13
2019-01-21T09:16:24.938Z,39.23
2019-01-21T09:17:24.970Z,39.03
2019-01-21T09:18:25.008Z,39.43
2019-01-21T09:19:25.764Z,39.53
2019-01-21T09:20:25.943Z,39.43
2019-01-21T09:21:24.923Z,39.53
2019-01-21T09:22:24.903Z,39.73
2019-01-21T09:23:24.952Z,39.51
2019-01-21T09:24:24.884Z,39.41
2019-01-21T09:25:24.891Z,39.41
2019-01-21T09:26:24.872Z,39.81
2019-01-21T09:27:24.917Z,39.63
2019-01-21T09:28:24.797Z,39.94
2019-01-21T09:29:24.845Z,39.94
2019-01-21T09:30:28.903Z,39.83
2019-01-21T09:31:25.142Z,39.53
2019-01-21T09:32:24.791Z,39.63
2019-01-21T09:33:24.873Z,39.73
2019-01-21T09:34:24.768Z,39.63
2019-01-21T09:35:24.771Z,39.63
2019-01-21T09:36:24.729Z,39.73
2019-01-21T09:37:24.746Z,39.53
2019-01-21T09:38:24.759Z,39.53
2019-01-21T09:39:24.732Z,39.73
2019-01-21T09:40:24.689Z,39.53
2019-01-21T09:41:24.660Z,40.34
2019-01-21T09:42:24.764Z,39.73
2019-01-21T09:43:24.673Z,39.73
2019-01-21T09:44:24.647Z,39.73
2019-01-21T09:45:24.619Z,39.53
2019-01-21T09:46:24.638Z,40.44
2019-01-21T09:47:24.610Z,40.03
2019-01-21T09:48:24.622Z,40.44
2019-01-21T09:49:24.624Z,40.34
2019-01-21T09:50:24.605Z,40.34
2019-01-21T09:51:24.568Z,41.14
2019-01-21T09:52:24.531Z,40.94
2019-01-21T09:53:24.606Z,40.94
2019-01-21T09:54:25.352Z,40.56
2019-01-21T09:55:24.666Z,40.64
2019-01-21T09:56:24.563Z,40.34
2019-01-21T09:57:24.543Z,40.44
2019-01-21T09:58:24.560Z,40.34
2019-01-21T09:59:27.566Z,40.54
2019-01-21T10:00:24.591Z,40.54
2019-01-21T10:01:25.193Z,40.74
2019-01-21T10:02:25.521Z,40.64
2019-01-21T10:03:24.483Z,40.74
2019-01-21T10:04:27.484Z,40.64
2019-01-21T10:05:24.528Z,41.14
2019-01-21T10:06:24.388Z,41.25
2019-01-21T10:07:24.384Z,41.25
2019-01-21T10:08:24.374Z,41.45
2019-01-21T10:09:24.481Z,41.55
2019-01-21T10:10:25.290Z,41.55
2019-01-21T10:11:24.360Z,41.45
2019-01-21T10:12:24.381Z,41.25
2019-01-21T10:13:24.309Z,41.05
2019-01-21T10:14:24.322Z,41.35
2019-01-21T10:15:24.345Z,41.14
2019-01-21T10:16:25.322Z,40.84
2019-01-21T10:17:24.405Z,41.25
2019-01-21T10:18:25.325Z,41.55
2019-01-21T10:19:24.277Z,41.45
2019-01-21T10:20:24.335Z,41.05
2019-01-21T10:21:25.620Z,41.05
2019-01-21T10:22:27.198Z,41.14
2019-01-21T10:23:24.224Z,41.55
2019-01-21T10:24:24.203Z,41.45
2019-01-21T10:25:24.387Z,42.25
2019-01-21T10:26:24.256Z,42.15
2019-01-21T10:27:24.205Z,41.95
2019-01-21T10:28:24.184Z,42.76
2019-01-21T10:29:24.202Z,42.55
2019-01-21T10:30:24.138Z,42.46
2019-01-21T10:31:24.295Z,42.05
2019-01-21T10:32:24.440Z,43.06
2019-01-21T10:33:24.199Z,42.46
2019-01-21T10:34:24.110Z,43.37
2019-01-21T10:35:25.117Z,43.66
2019-01-21T10:36:24.440Z,43.57
2019-01-21T10:37:24.104Z,43.57
2019-01-21T10:38:24.159Z,43.37
2019-01-21T10:39:24.084Z,43.87
2019-01-21T10:40:24.114Z,43.77
2019-01-21T10:41:24.890Z,43.97
2019-01-21T10:42:25.566Z,43.77
2019-01-21T10:43:24.046Z,43.77
2019-01-21T10:44:24.063Z,43.87
2019-01-21T10:45:25.010Z,43.37
2019-01-21T10:46:24.818Z,43.57
2019-01-21T10:47:23.946Z,43.37
2019-01-21T10:48:24.029Z,43.57
2019-01-21T10:49:23.950Z,43.16
2019-01-21T10:50:24.032Z,42.35
2019-01-21T10:51:24.001Z,42.54
2019-01-21T10:52:23.917Z,42.55
2019-01-21T10:53:23.962Z,42.25
2019-01-21T10:54:23.919Z,42.66
2019-01-21T10:55:23.888Z,42.76
2019-01-21T10:56:23.835Z,42.46
2019-01-21T10:57:26.028Z,42.76
2019-01-21T10:58:23.834Z,42.55
2019-01-21T10:59:23.803Z,42.35
2019-01-21T11:00:23.843Z,42.35
2019-01-21T11:01:23.945Z,42.46
2019-01-21T11:02:24.027Z,42.96
2019-01-21T11:03:23.922Z,42.66
2019-01-21T11:04:23.909Z,42.55
2019-01-21T11:05:25.453Z,42.15
2019-01-21T11:06:23.787Z,42.76
2019-01-21T11:07:23.853Z,42.54
2019-01-21T11:08:23.743Z,42.35
2019-01-21T11:09:26.746Z,42.54
2019-01-21T11:10:23.740Z,42.15
2019-01-21T11:11:23.726Z,42.66
2019-01-21T11:12:24.283Z,43.14
2019-01-21T11:13:23.776Z,43.34
2019-01-21T11:14:23.650Z,43.46
2019-01-21T11:15:23.671Z,43.46
2019-01-21T11:16:23.635Z,43.14
2019-01-21T11:17:23.613Z,43.44
2019-01-21T11:18:23.853Z,43.16
2019-01-21T11:19:23.603Z,43.66
2019-01-21T11:20:23.590Z,43.37
2019-01-21T11:21:23.632Z,43.16
2019-01-21T11:22:24.258Z,43.24
2019-01-21T11:23:23.535Z,43.14
2019-01-21T11:24:23.529Z,43.54
2019-01-21T11:25:23.929Z,43.44
2019-01-21T11:26:23.543Z,43.24
2019-01-21T11:27:23.501Z,43.24
2019-01-21T11:28:23.491Z,43.14
2019-01-21T11:29:23.479Z,43.04
2019-01-21T11:30:23.502Z,43.34
2019-01-21T11:31:23.796Z,43.34
2019-01-21T11:32:23.474Z,43.34
2019-01-21T11:33:23.425Z,43.34
2019-01-21T11:34:23.496Z,43.65
2019-01-21T11:35:23.403Z,43.14
2019-01-21T11:36:23.436Z,43.14
2019-01-21T11:37:23.440Z,43.14
2019-01-21T11:38:23.375Z,43.74
2019-01-21T11:39:26.256Z,43.66
2019-01-21T11:40:23.366Z,43.65
2019-01-21T11:41:23.433Z,43.54
2019-01-21T11:42:23.390Z,43.54
2019-01-21T11:43:23.318Z,44.15
2019-01-21T11:44:23.333Z,43.65
2019-01-21T11:45:23.469Z,43.65
2019-01-21T11:46:23.417Z,43.54
2019-01-21T11:47:23.278Z,43.74
2019-01-21T11:48:23.273Z,43.54
2019-01-21T11:49:23.250Z,43.34
2019-01-21T11:50:23.282Z,43.14
2019-01-21T11:51:23.253Z,43.44
2019-01-21T11:52:23.218Z,43.24
2019-01-21T11:53:23.207Z,43.24
2019-01-21T11:54:23.198Z,42.84
2019-01-21T11:55:23.192Z,42.13
2019-01-21T11:56:23.238Z,42.54
2019-01-21T11:57:23.168Z,42.74
2019-01-21T11:58:24.165Z,42.33
2019-01-21T11:59:26.255Z,42.44
2019-01-21T12:00:26.937Z,42.54
2019-01-21T12:01:23.434Z,42.44
2019-01-21T12:02:23.853Z,43.14
2019-01-21T12:03:23.827Z,43.04
2019-01-21T12:04:23.448Z,42.11
2019-01-21T12:05:23.365Z,41.93
2019-01-21T12:06:23.399Z,41.73
2019-01-21T12:07:24.375Z,42.74
2019-01-21T12:08:23.374Z,41.83
2019-01-21T12:09:23.351Z,41.93
2019-01-21T12:10:23.387Z,42.32
2019-01-21T12:11:23.367Z,41.93
2019-01-21T12:12:23.750Z,42.13
2019-01-21T12:13:23.382Z,42.11
2019-01-21T12:14:23.385Z,42.32
2019-01-21T12:15:23.101Z,42.21
2019-01-21T12:16:23.025Z,42.21
2019-01-21T12:17:23.758Z,42.61
2019-01-21T12:18:23.042Z,42.21
2019-01-21T12:19:23.005Z,42.52
2019-01-21T12:20:23.007Z,42.52
2019-01-21T12:21:22.934Z,42.32
2019-01-21T12:22:22.891Z,42.52
2019-01-21T12:23:22.893Z,42.11
2019-01-21T12:24:22.890Z,42.11
2019-01-21T12:25:24.005Z,42.01
2019-01-21T12:26:22.893Z,41.91
2019-01-21T12:27:22.888Z,42.61
2019-01-21T12:28:22.835Z,42.21
2019-01-21T12:29:22.859Z,42.11
2019-01-21T12:30:22.833Z,42.21
2019-01-21T12:31:22.830Z,42.19
2019-01-21T12:32:23.185Z,42.21
2019-01-21T12:33:22.768Z,42.92
2019-01-21T12:35:36.957Z,43.32
2019-01-21T12:36:37.959Z,43.12
2019-01-21T12:37:37.949Z,44.41
2019-01-21T12:38:37.911Z,44.21
2019-01-21T12:39:37.909Z,43.80
2019-01-21T12:40:37.916Z,43.51
2019-01-21T12:41:37.874Z,43.40
2019-01-21T12:42:38.143Z,43.00
2019-01-21T12:43:37.882Z,43.51
2019-01-21T12:44:37.945Z,43.51
2019-01-21T12:45:37.851Z,43.30
2019-01-21T12:46:37.843Z,43.28
2019-01-21T12:47:37.864Z,43.71
2019-01-21T12:48:37.889Z,44.21
2019-01-21T12:49:37.810Z,42.21
2019-01-21T12:50:37.793Z,42.92
2019-01-21T12:51:37.763Z,40.10
2019-01-21T12:52:37.802Z,41.93
2019-01-21T12:53:37.793Z,43.32
2019-01-21T12:54:37.783Z,43.04
2019-01-21T12:55:37.741Z,42.54
2019-01-21T12:56:38.726Z,42.24
2019-01-21T12:57:37.727Z,42.05
2019-01-21T12:58:37.705Z,41.75
2019-01-21T12:59:37.698Z,41.65
2019-01-21T13:00:37.674Z,42.58
2019-01-21T13:01:37.689Z,42.47
2019-01-21T13:02:40.010Z,40.46
2019-01-21T13:03:37.652Z,42.07
2019-01-21T13:04:37.643Z,42.09
2019-01-21T13:05:40.844Z,42.29
2019-01-21T13:06:37.647Z,42.09
2019-01-21T13:07:37.613Z,41.69
2019-01-21T13:08:37.608Z,41.79
2019-01-21T13:09:37.576Z,41.99
2019-01-21T13:10:37.703Z,41.59
2019-01-21T13:11:37.559Z,40.58
2019-01-21T13:12:37.609Z,41.18
2019-01-21T13:13:37.536Z,41.08
2019-01-21T13:14:37.529Z,40.58
2019-01-21T13:15:37.515Z,40.48
2019-01-21T13:16:37.495Z,37.87
2019-01-21T13:17:37.492Z,39.59
2019-01-21T13:18:37.526Z,41.20
2019-01-21T13:19:38.255Z,40.28
2019-01-21T13:20:37.533Z,40.37
2019-01-21T13:21:37.474Z,39.57
2019-01-21T13:22:37.448Z,39.89
2019-01-21T13:23:37.436Z,39.39
2019-01-21T13:24:37.406Z,39.69
2019-01-21T13:25:37.398Z,39.39
2019-01-21T13:26:37.432Z,39.48
2019-01-21T13:27:37.622Z,39.69
2019-01-21T13:28:37.392Z,40.09
2019-01-21T13:29:37.380Z,39.59
2019-01-21T13:30:37.387Z,38.78
2019-01-21T13:31:37.353Z,39.79
2019-01-21T13:32:37.350Z,39.18
2019-01-21T13:33:37.333Z,38.78
2019-01-21T13:34:38.269Z,38.28
2019-01-21T13:35:37.290Z,38.48
2019-01-21T13:36:37.292Z,37.77
2019-01-21T13:37:37.410Z,37.97
2019-01-21T13:38:37.286Z,37.77
2019-01-21T13:39:37.766Z,36.55
2019-01-21T13:40:37.245Z,37.48
2019-01-21T13:41:37.360Z,36.47
2019-01-21T13:42:37.227Z,37.48
2019-01-21T13:43:37.229Z,37.89
2019-01-21T13:44:37.205Z,37.68
2019-01-21T13:45:37.184Z,37.79
2019-01-21T13:46:37.169Z,37.99
2019-01-21T13:47:37.199Z,38.09
2019-01-21T13:48:37.165Z,38.09
2019-01-21T13:49:37.164Z,38.29
2019-01-21T13:50:37.415Z,38.29
2019-01-21T13:51:37.111Z,36.98
2019-01-21T13:52:37.100Z,36.37
2019-01-21T13:53:37.099Z,37.28
2019-01-21T13:54:37.091Z,36.17
2019-01-21T13:55:37.126Z,36.37
2019-01-21T13:56:49.960Z,36.37
2019-01-21T13:57:37.057Z,37.28
2019-01-21T13:58:37.037Z,36.47
2019-01-21T13:59:37.054Z,36.88
2019-01-21T14:00:37.019Z,36.57
2019-01-21T14:01:37.031Z,36.47
2019-01-21T14:02:36.996Z,36.37
2019-01-21T14:03:37.580Z,36.17
2019-01-21T14:04:37.069Z,36.17
2019-01-21T14:05:37.013Z,35.66
2019-01-21T14:06:36.952Z,35.77
2019-01-21T14:07:36.937Z,36.27
2019-01-21T14:08:36.932Z,35.66
2019-01-21T14:09:36.971Z,36.07
2019-01-21T14:10:36.987Z,35.86
2019-01-21T14:11:36.950Z,36.17
2019-01-21T14:12:36.991Z,36.17
2019-01-21T14:13:36.959Z,35.85
2019-01-21T14:14:36.900Z,36.47
2019-01-21T14:15:36.848Z,35.04
2019-01-21T14:16:36.847Z,35.24
2019-01-21T14:17:37.845Z,35.35
2019-01-21T14:18:36.817Z,35.44
2019-01-21T14:19:36.833Z,35.24
2019-01-21T14:20:36.807Z,35.65
2019-01-21T14:21:36.844Z,35.35
2019-01-21T14:22:36.784Z,35.65
2019-01-21T14:23:36.788Z,35.33
2019-01-21T14:24:36.766Z,35.13
2019-01-21T14:25:36.737Z,34.92
2019-01-21T14:26:36.734Z,35.23
2019-01-21T14:27:36.755Z,35.63
2019-01-21T14:28:36.722Z,35.33
2019-01-21T14:29:36.715Z,35.73
2019-01-21T14:30:36.706Z,35.63
2019-01-21T14:31:36.727Z,35.53
2019-01-21T14:32:36.686Z,35.53
2019-01-21T14:33:36.659Z,35.33
2019-01-21T14:34:36.676Z,35.33
2019-01-21T14:35:36.653Z,35.53
2019-01-21T14:36:36.654Z,35.33
2019-01-21T14:37:36.628Z,35.53
2019-01-21T14:38:36.605Z,34.72
2019-01-21T14:39:36.603Z,34.72
2019-01-21T14:40:36.576Z,34.42
2019-01-21T14:41:36.589Z,34.42
2019-01-21T14:42:36.559Z,34.61
2019-01-21T14:43:36.570Z,34.50
2019-01-21T14:44:36.555Z,34.70
2019-01-21T14:45:36.532Z,34.91
2019-01-21T14:46:36.525Z,34.70
2019-01-21T14:47:36.502Z,34.30
2019-01-21T14:48:36.534Z,35.11
2019-01-21T14:49:36.506Z,34.50
2019-01-21T14:50:36.482Z,34.91
2019-01-21T14:51:36.799Z,34.20
2019-01-21T14:52:36.503Z,35.11
2019-01-21T14:53:36.735Z,35.01
2019-01-21T14:54:36.525Z,34.70
2019-01-21T14:55:36.439Z,34.91
2019-01-21T14:56:36.483Z,34.10
2019-01-21T14:57:36.406Z,34.81
2019-01-21T14:58:36.497Z,35.11
2019-01-21T14:59:36.380Z,34.81
2019-01-21T15:00:36.371Z,34.81
2019-01-21T15:01:36.367Z,33.70
2019-01-21T15:02:36.341Z,33.90
2019-01-21T15:03:36.360Z,34.70
2019-01-21T15:04:36.410Z,34.61
2019-01-21T15:05:36.311Z,34.41
2019-01-21T15:06:36.359Z,34.12
2019-01-21T15:07:36.347Z,34.50
2019-01-21T15:08:36.338Z,34.32
2019-01-21T15:09:36.320Z,34.42
2019-01-21T15:10:36.258Z,34.12
2019-01-21T15:11:36.320Z,34.12
2019-01-21T15:12:36.226Z,34.42
2019-01-21T15:13:36.230Z,34.52
2019-01-21T15:14:36.232Z,34.42
2019-01-21T15:15:36.224Z,33.92
2019-01-21T15:16:36.236Z,34.32
2019-01-21T15:17:36.173Z,34.33
2019-01-21T15:18:36.226Z,34.33
2019-01-21T15:19:36.225Z,34.22
2019-01-21T15:20:36.238Z,34.32
2019-01-21T15:21:36.134Z,34.32
2019-01-21T15:22:36.202Z,34.52
2019-01-21T15:23:36.114Z,34.52
2019-01-21T15:24:36.139Z,34.42
2019-01-21T15:25:36.162Z,34.12
2019-01-21T15:26:36.085Z,34.23
2019-01-21T15:27:36.150Z,34.13
2019-01-21T15:28:36.069Z,34.33
2019-01-21T15:29:36.081Z,32.82
2019-01-21T15:30:36.140Z,33.53
2019-01-21T15:31:36.044Z,33.83
2019-01-21T15:32:36.110Z,34.23
2019-01-21T15:33:36.064Z,34.13
2019-01-21T15:34:36.029Z,34.64
2019-01-21T15:35:35.976Z,34.54
2019-01-21T15:36:36.034Z,34.22
2019-01-21T15:37:36.035Z,34.12
2019-01-21T15:38:35.963Z,34.70
2019-01-21T15:39:35.967Z,35.01
2019-01-21T15:40:35.933Z,34.69
2019-01-21T15:41:36.101Z,34.59
2019-01-21T15:42:35.999Z,34.97
2019-01-21T15:43:35.980Z,34.96
2019-01-21T15:44:35.953Z,34.97
2019-01-21T15:45:35.968Z,34.76
2019-01-21T15:46:35.905Z,34.45
2019-01-21T15:47:35.868Z,34.04
2019-01-21T15:48:35.841Z,34.24
2019-01-21T15:49:35.851Z,34.24
2019-01-21T15:50:35.827Z,34.34
2019-01-21T15:51:35.818Z,34.04
2019-01-21T15:52:35.797Z,34.04
2019-01-21T15:53:35.788Z,34.32
2019-01-21T15:54:35.781Z,34.02
2019-01-21T15:55:35.761Z,34.24
2019-01-21T15:56:35.750Z,34.22
2019-01-21T15:57:35.749Z,34.14
2019-01-21T15:58:35.721Z,34.44
2019-01-21T15:59:35.740Z,34.52
2019-01-21T16:00:35.703Z,34.63
2019-01-21T16:01:35.706Z,34.32
2019-01-21T16:02:35.705Z,34.52
2019-01-21T16:03:35.673Z,34.02
2019-01-21T16:04:35.800Z,34.32
2019-01-21T16:05:35.665Z,34.22
2019-01-21T16:06:35.635Z,34.42
2019-01-21T16:07:35.628Z,34.32
2019-01-21T16:08:35.619Z,34.42
2019-01-21T16:09:35.707Z,34.52
2019-01-21T16:10:35.635Z,34.42
2019-01-21T16:11:35.585Z,34.52
2019-01-21T16:12:35.604Z,34.32
2019-01-21T16:13:35.564Z,33.82
2019-01-21T16:14:36.492Z,34.12
2019-01-21T16:15:35.561Z,33.92
2019-01-21T16:16:35.528Z,34.32
2019-01-21T16:17:35.521Z,34.02
2019-01-21T16:18:35.509Z,34.24
2019-01-21T16:19:35.492Z,34.32
2019-01-21T16:20:35.531Z,34.63
2019-01-21T16:21:35.484Z,34.42
2019-01-21T16:22:35.476Z,34.42
2019-01-21T16:23:35.448Z,34.42
2019-01-21T16:24:35.446Z,34.44
2019-01-21T16:25:35.445Z,34.44
2019-01-21T16:26:35.596Z,34.42
2019-01-21T16:27:35.423Z,34.42
2019-01-21T16:28:35.478Z,34.52
2019-01-21T16:29:35.388Z,34.42
2019-01-21T16:30:35.396Z,34.22
2019-01-21T16:31:35.370Z,34.22
2019-01-21T16:32:35.373Z,34.22
2019-01-21T16:33:35.335Z,34.24
2019-01-21T16:34:35.336Z,34.54
2019-01-21T16:35:35.337Z,34.54
2019-01-21T16:36:35.316Z,34.14
2019-01-21T16:37:35.301Z,34.24
2019-01-21T16:38:35.290Z,34.32
2019-01-21T16:39:35.280Z,34.12
2019-01-21T16:40:35.282Z,34.42
2019-01-21T16:41:35.255Z,34.22
2019-01-21T16:42:35.248Z,34.14
2019-01-21T16:43:35.238Z,34.44
2019-01-21T16:44:35.281Z,34.22
2019-01-21T16:45:35.230Z,34.42
2019-01-21T16:46:35.741Z,34.22
2019-01-21T16:47:35.193Z,34.12
2019-01-21T16:48:36.423Z,34.14
2019-01-21T16:49:35.170Z,34.22
2019-01-21T16:50:35.195Z,34.24
2019-01-21T16:51:35.213Z,34.32
2019-01-21T16:52:36.893Z,34.42
2019-01-21T16:53:35.125Z,34.42
2019-01-21T16:54:35.132Z,34.12
2019-01-21T16:55:35.196Z,34.42
2019-01-21T16:56:35.099Z,34.34
2019-01-21T16:57:35.171Z,34.42
2019-01-21T16:58:35.088Z,34.34
2019-01-21T16:59:35.050Z,34.54
2019-01-21T17:00:35.118Z,34.22
2019-01-21T17:01:35.036Z,34.34
2019-01-21T17:02:35.039Z,34.24
2019-01-21T17:03:35.024Z,34.24
2019-01-21T17:04:35.019Z,34.04
2019-01-21T17:05:35.029Z,34.24
2019-01-21T17:06:34.989Z,34.24
2019-01-21T17:07:34.966Z,34.04
2019-01-21T17:08:34.965Z,34.04
2019-01-21T17:09:34.972Z,34.14
2019-01-21T17:10:39.126Z,34.34
2019-01-21T17:11:34.943Z,34.44
2019-01-21T17:12:35.897Z,34.34
2019-01-21T17:13:34.926Z,34.14
2019-01-21T17:14:34.906Z,34.14
2019-01-21T17:15:34.898Z,34.44
2019-01-21T17:16:34.897Z,34.44
2019-01-21T17:17:34.862Z,34.14
2019-01-21T17:18:34.851Z,34.14
2019-01-21T17:19:34.844Z,34.04
2019-01-21T17:20:34.840Z,34.54
2019-01-21T17:22:34.820Z,34.14
2019-01-21T17:23:34.796Z,34.14
2019-01-21T17:24:34.779Z,34.14
2019-01-21T17:25:34.796Z,34.14
2019-01-21T17:26:34.762Z,34.04
2019-01-21T17:27:34.755Z,34.04
2019-01-21T17:28:34.744Z,34.24
2019-01-21T17:29:34.800Z,34.14
2019-01-21T17:30:34.752Z,34.04
2019-01-21T17:31:34.715Z,34.24
2019-01-21T17:32:34.714Z,34.14
2019-01-21T17:33:34.686Z,34.24
2019-01-21T17:34:34.685Z,34.34
2019-01-21T17:35:34.682Z,34.44
2019-01-21T17:36:34.661Z,34.34
2019-01-21T17:37:34.662Z,34.34
2019-01-21T17:38:34.661Z,34.24
2019-01-21T17:39:34.620Z,34.34
2019-01-21T17:40:34.629Z,34.24
2019-01-21T17:41:34.610Z,34.44
2019-01-21T17:42:34.623Z,34.44
2019-01-21T17:43:34.586Z,34.14
2019-01-21T17:44:34.563Z,34.34
2019-01-21T17:45:34.576Z,34.34
2019-01-21T17:46:34.547Z,34.44
2019-01-21T17:47:34.549Z,34.44
2019-01-21T17:48:34.527Z,34.44
2019-01-21T17:49:34.515Z,34.34
2019-01-21T17:50:34.504Z,34.44
2019-01-21T17:51:35.425Z,34.14
2019-01-21T17:52:34.509Z,34.24
2019-01-21T17:53:34.481Z,34.54
2019-01-21T17:54:35.302Z,34.14
2019-01-21T17:55:34.454Z,34.34
2019-01-21T17:56:34.448Z,34.14
2019-01-21T17:57:34.421Z,34.24
2019-01-21T17:58:34.420Z,34.14
2019-01-21T17:59:34.419Z,34.44
2019-01-21T18:00:34.502Z,34.54
2019-01-21T18:01:39.224Z,34.34
2019-01-21T18:02:34.378Z,34.44
2019-01-21T18:03:34.360Z,34.24
2019-01-21T18:04:34.350Z,34.44
2019-01-21T18:05:34.343Z,34.44
2019-01-21T18:06:34.359Z,34.14
2019-01-21T18:07:35.252Z,34.44
2019-01-21T18:08:34.305Z,34.56
2019-01-21T18:09:34.298Z,34.36
2019-01-21T18:10:34.309Z,34.44
2019-01-21T18:11:34.285Z,34.34
2019-01-21T18:12:34.268Z,34.04
2019-01-21T18:13:34.250Z,34.76
2019-01-21T18:14:34.241Z,34.44
2019-01-21T18:15:34.258Z,34.56
2019-01-21T18:16:34.254Z,34.25
2019-01-21T18:17:34.209Z,34.45
2019-01-21T18:18:34.280Z,34.44
2019-01-21T18:19:34.185Z,34.25
2019-01-21T18:20:34.178Z,34.56
2019-01-21T18:21:39.978Z,34.54
2019-01-21T18:22:34.748Z,34.16
2019-01-21T18:23:34.141Z,34.45
2019-01-21T18:24:34.131Z,34.25
2019-01-21T18:25:34.125Z,34.56
2019-01-21T18:26:34.130Z,34.45
2019-01-21T18:27:34.113Z,34.45
2019-01-21T18:28:34.104Z,34.45
2019-01-21T18:29:34.089Z,34.45
2019-01-21T18:30:34.066Z,34.25
2019-01-21T18:31:34.066Z,34.74
2019-01-21T18:32:34.059Z,34.44
2019-01-21T18:33:34.046Z,34.44
2019-01-21T18:34:34.096Z,34.05
2019-01-21T18:35:34.019Z,34.36
2019-01-21T18:36:34.020Z,34.04
2019-01-21T18:37:33.992Z,34.05
2019-01-21T18:38:33.978Z,34.16
2019-01-21T18:39:33.969Z,34.16
2019-01-21T18:40:34.049Z,34.56
2019-01-21T18:41:34.069Z,34.16
2019-01-21T18:42:33.953Z,34.34
2019-01-21T18:43:33.922Z,34.56
2019-01-21T18:44:33.906Z,34.34
2019-01-21T18:45:33.902Z,34.56
2019-01-21T18:46:33.904Z,34.45
2019-01-21T18:47:33.916Z,34.36
2019-01-21T18:48:33.929Z,34.24
2019-01-21T18:49:33.865Z,34.34
2019-01-21T18:50:33.969Z,34.45
2019-01-21T18:51:33.851Z,34.24
2019-01-21T18:52:33.828Z,34.14
2019-01-21T18:53:33.833Z,34.25
2019-01-21T18:54:33.803Z,34.45
2019-01-21T18:55:33.790Z,34.36
2019-01-21T18:56:33.785Z,34.16
2019-01-21T18:57:34.031Z,34.45
2019-01-21T18:58:33.762Z,34.25
2019-01-21T18:59:33.748Z,34.36
2019-01-21T19:00:33.744Z,34.36
2019-01-21T19:01:33.737Z,34.36
2019-01-21T19:02:33.728Z,34.56
2019-01-21T19:03:33.713Z,34.25
2019-01-21T19:04:33.694Z,34.56
2019-01-21T19:05:33.692Z,34.36
2019-01-21T19:06:33.817Z,34.05
2019-01-21T19:07:33.665Z,34.05
2019-01-21T19:08:33.653Z,34.05
2019-01-21T19:09:33.682Z,34.05
2019-01-21T19:10:33.640Z,34.16
2019-01-21T19:11:33.636Z,34.45
2019-01-21T19:12:33.708Z,34.05
2019-01-21T19:13:33.607Z,34.05
2019-01-21T19:14:33.616Z,34.36
2019-01-21T19:15:33.576Z,34.36
2019-01-21T19:16:33.703Z,34.45
2019-01-21T19:17:33.570Z,34.05
2019-01-21T19:18:33.537Z,34.05
2019-01-21T19:19:33.575Z,34.76
2019-01-21T19:20:33.528Z,34.76
2019-01-21T19:21:33.507Z,34.45
2019-01-21T19:22:33.517Z,34.56
2019-01-21T19:23:33.497Z,34.76
2019-01-21T19:24:33.473Z,34.66
2019-01-21T19:25:33.477Z,34.56
2019-01-21T19:26:33.472Z,34.66
2019-01-21T19:27:33.552Z,34.56
2019-01-21T19:28:33.437Z,34.45
2019-01-21T19:29:33.432Z,34.56
2019-01-21T19:30:33.413Z,34.66
2019-01-21T19:31:33.401Z,34.56
2019-01-21T19:32:33.424Z,34.56
2019-01-21T19:33:33.383Z,34.66
2019-01-21T19:34:33.370Z,34.25
2019-01-21T19:35:33.372Z,34.66
2019-01-21T19:36:33.355Z,34.05
2019-01-21T19:37:33.345Z,33.85
2019-01-21T19:38:33.387Z,34.05
2019-01-21T19:39:33.328Z,34.66
2019-01-21T19:40:33.308Z,34.56
2019-01-21T19:41:33.349Z,34.25
2019-01-21T19:42:33.298Z,33.85
2019-01-21T19:43:33.271Z,34.16
2019-01-21T19:44:33.275Z,33.85
2019-01-21T19:45:33.260Z,34.56
2019-01-21T19:46:33.245Z,34.16
2019-01-21T19:47:33.249Z,33.75
2019-01-21T19:48:33.215Z,34.16
2019-01-21T19:49:33.207Z,34.16
2019-01-21T19:50:33.206Z,34.16
2019-01-21T19:51:33.180Z,33.75
2019-01-21T19:52:33.227Z,33.85
2019-01-21T19:53:33.169Z,33.85
2019-01-21T19:54:33.150Z,33.75
2019-01-21T19:55:33.153Z,33.85
2019-01-21T19:56:33.153Z,33.85
2019-01-21T19:57:33.145Z,33.95
2019-01-21T19:58:33.150Z,33.95
2019-01-21T19:59:33.092Z,33.95
2019-01-21T20:00:33.093Z,33.95